createdAt,value
2022-08-22T00:00:26.506Z,82.00
2022-08-22T00:02:47.663Z,1.20
2022-08-22T00:02:57.785Z,64.00
2022-08-22T00:02:58.750Z,59.40
2022-08-22T00:03:10.105Z,16.90
2022-08-22T00:03:11.561Z,10.50
2022-08-22T00:03:11.563Z,31.50
2022-08-22T00:03:19.030Z,70.60
2022-08-22T00:06:06.296Z,78.20
2022-08-22T00:09:11.793Z,35.20
2022-08-22T00:12:04.436Z,51.90
2022-08-22T00:15:07.217Z,36.00
2022-08-22T00:17:38.296Z,73.20
2022-08-22T00:20:19.252Z,44.50
2022-08-22T00:22:53.464Z,55.30
2022-08-22T00:25:42.808Z,65.40
2022-08-22T00:28:17.971Z,75.40
2022-08-22T00:31:07.692Z,64.70
2022-08-22T00:34:02.458Z,71.40
2022-08-22T00:36:43.742Z,94.60
2022-08-22T00:39:20.258Z,112.20
2022-08-22T00:42:00.355Z,88.40
2022-08-22T00:45:26.289Z,70.20
2022-08-22T00:48:09.958Z,60.30
2022-08-22T00:51:00.624Z,62.20
2022-08-22T00:56:35.767Z,69.90
2022-08-22T00:59:30.299Z,82.90
2022-08-22T01:02:24.632Z,70.40
2022-08-22T01:05:18.498Z,53.40
2022-08-22T01:08:13.033Z,29.90
2022-08-22T01:11:06.330Z,74.10
2022-08-22T01:14:04.660Z,46.70
2022-08-22T01:16:34.827Z,58.50
2022-08-22T01:19:34.518Z,28.40
2022-08-22T01:22:40.164Z,66.50
2022-08-22T01:25:21.929Z,36.30
2022-08-22T01:28:28.128Z,22.50
2022-08-22T01:31:34.472Z,36.10
2022-08-22T01:34:26.620Z,41.30
2022-08-22T01:37:25.370Z,27.00
2022-08-22T01:40:20.953Z,36.60
2022-08-22T01:42:52.414Z,27.30
2022-08-22T01:45:52.710Z,36.60
2022-08-22T01:48:32.227Z,31.40
2022-08-22T01:51:03.035Z,46.70
2022-08-22T01:53:55.321Z,41.00
2022-08-22T01:56:26.251Z,49.60
2022-08-22T01:59:11.112Z,57.40
2022-08-22T02:02:04.200Z,53.00
2022-08-22T02:04:58.368Z,44.60
2022-08-22T02:07:49.472Z,39.50
2022-08-22T02:11:06.155Z,50.10
2022-08-22T02:13:55.127Z,44.20
2022-08-22T02:16:40.858Z,51.60
2022-08-22T02:19:26.889Z,45.20
2022-08-22T02:22:07.500Z,41.10
2022-08-22T02:25:02.484Z,43.70
2022-08-22T02:27:37.816Z,48.60
2022-08-22T02:30:17.842Z,45.20
2022-08-22T02:33:07.669Z,44.40
2022-08-22T02:35:48.516Z,48.40
2022-08-22T02:38:24.236Z,51.50
2022-08-22T02:41:11.112Z,46.20
2022-08-22T02:43:49.694Z,48.60
2022-08-22T02:46:47.321Z,52.50
2022-08-22T02:49:34.580Z,48.70
2022-08-22T02:52:11.859Z,52.70
2022-08-22T02:54:45.879Z,54.20
2022-08-22T02:57:42.515Z,48.00
2022-08-22T03:00:30.737Z,47.10
2022-08-22T03:03:16.863Z,53.40
2022-08-22T03:05:44.857Z,47.20
2022-08-22T03:08:34.023Z,46.20
2022-08-22T03:11:18.228Z,43.80
2022-08-22T03:14:01.630Z,51.10
2022-08-22T03:16:48.169Z,45.30
2022-08-22T03:19:30.492Z,51.70
2022-08-22T03:22:11.676Z,50.30
2022-08-22T03:25:04.965Z,47.70
2022-08-22T03:27:49.490Z,45.90
2022-08-22T03:30:40.732Z,55.70
2022-08-22T03:33:17.851Z,50.70
2022-08-22T03:35:45.966Z,42.70
2022-08-22T03:38:29.199Z,40.00
2022-08-22T03:41:26.668Z,45.30
2022-08-22T03:44:30.969Z,42.00
2022-08-22T03:47:22.852Z,40.10
2022-08-22T03:50:15.617Z,38.70
2022-08-22T03:53:18.568Z,41.20
2022-08-22T03:56:06.262Z,46.90
2022-08-22T03:58:49.632Z,41.10
2022-08-22T04:01:26.775Z,38.50
2022-08-22T04:04:09.649Z,38.40
2022-08-22T04:06:43.502Z,38.20
2022-08-22T04:09:40.414Z,35.80
2022-08-22T04:12:21.102Z,31.10
2022-08-22T04:14:55.155Z,34.20
2022-08-22T04:17:51.269Z,34.20
2022-08-22T04:20:47.303Z,37.80
2022-08-22T04:23:37.089Z,40.20
2022-08-22T04:26:17.532Z,37.80
2022-08-22T04:28:53.856Z,29.30
2022-08-22T04:31:46.329Z,35.60
2022-08-22T04:34:29.819Z,33.50
2022-08-22T04:37:06.743Z,36.90
2022-08-22T04:39:57.831Z,35.50
2022-08-22T04:42:35.367Z,38.20
2022-08-22T04:45:10.502Z,34.20
2022-08-22T04:47:40.898Z,39.80
2022-08-22T04:50:31.462Z,40.10
2022-08-22T04:53:36.845Z,37.60
2022-08-22T04:56:19.668Z,38.10
2022-08-22T04:58:58.256Z,45.90
2022-08-22T05:01:48.568Z,35.10
2022-08-22T05:04:23.138Z,31.00
2022-08-22T05:06:57.021Z,38.30
2022-08-22T05:09:31.318Z,37.00
2022-08-22T05:12:05.605Z,36.50
2022-08-22T05:14:43.524Z,41.80
2022-08-22T05:17:18.943Z,40.40
2022-08-22T05:19:51.823Z,40.90
2022-08-22T05:22:31.094Z,34.00
2022-08-22T05:25:05.366Z,36.40
2022-08-22T05:27:39.186Z,39.50
2022-08-22T05:30:13.564Z,40.70
2022-08-22T05:32:54.043Z,36.20
2022-08-22T05:35:35.635Z,36.90
2022-08-22T05:38:07.230Z,35.10
2022-08-22T05:40:37.919Z,34.20
2022-08-22T05:43:10.167Z,35.80
2022-08-22T05:45:40.606Z,33.90
2022-08-22T05:48:16.734Z,34.80
2022-08-22T05:50:53.664Z,36.90
2022-08-22T05:53:42.150Z,33.00
2022-08-22T05:56:45.178Z,31.20
2022-08-22T05:59:32.861Z,33.10
2022-08-22T06:02:25.816Z,40.00
2022-08-22T06:05:01.043Z,36.60
2022-08-22T06:07:50.856Z,33.50
2022-08-22T06:10:32.089Z,39.20
2022-08-22T06:13:26.114Z,38.90
2022-08-22T06:16:03.884Z,38.10
2022-08-22T06:18:34.130Z,40.80
2022-08-22T06:21:07.126Z,45.80
2022-08-22T06:23:44.719Z,38.90
2022-08-22T06:26:20.603Z,37.90
2022-08-22T06:28:54.695Z,43.90
2022-08-22T06:31:41.899Z,38.30
2022-08-22T06:34:14.954Z,39.00
2022-08-22T06:36:49.900Z,37.00
2022-08-22T06:39:30.240Z,41.10
2022-08-22T06:42:04.905Z,45.50
2022-08-22T06:44:38.762Z,40.80
2022-08-22T06:47:11.378Z,45.80
2022-08-22T06:49:41.839Z,44.30
2022-08-22T06:52:25.137Z,40.70
2022-08-22T06:55:06.292Z,48.30
2022-08-22T06:57:52.850Z,43.90
2022-08-22T07:00:21.718Z,43.60
2022-08-22T07:02:57.795Z,40.50
2022-08-22T07:05:36.856Z,40.20
2022-08-22T07:08:12.777Z,45.00
2022-08-22T07:13:20.343Z,45.00
2022-08-22T07:15:56.691Z,51.90
2022-08-22T07:18:27.833Z,43.50
2022-08-22T07:21:00.448Z,44.70
2022-08-22T07:23:36.665Z,48.60
2022-08-22T07:26:12.970Z,43.60
2022-08-22T07:28:51.247Z,46.50
2022-08-22T07:31:49.418Z,48.30
2022-08-22T07:34:26.995Z,49.20
2022-08-22T07:37:10.724Z,46.00
2022-08-22T07:39:47.127Z,45.10
2022-08-22T07:42:19.375Z,46.50
2022-08-22T07:45:07.118Z,52.70
2022-08-22T07:48:03.446Z,52.70
2022-08-22T07:50:39.446Z,50.10
2022-08-22T07:53:20.298Z,50.70
2022-08-22T07:55:50.034Z,50.20
2022-08-22T07:58:20.910Z,48.70
2022-08-22T08:00:51.552Z,51.00
2022-08-22T08:03:23.568Z,44.50
2022-08-22T08:05:52.473Z,48.90
2022-08-22T08:08:26.617Z,43.80
2022-08-22T08:10:57.740Z,54.60
2022-08-22T08:13:31.785Z,56.80
2022-08-22T08:16:00.712Z,53.00
2022-08-22T08:18:33.982Z,55.10
2022-08-22T08:21:08.931Z,51.00
2022-08-22T08:23:46.339Z,48.30
2022-08-22T08:26:18.401Z,46.70
2022-08-22T08:28:51.005Z,59.00
2022-08-22T08:31:43.187Z,45.90
2022-08-22T08:34:23.022Z,52.10
2022-08-22T08:37:09.513Z,44.80
2022-08-22T08:39:50.869Z,46.80
2022-08-22T08:43:02.687Z,47.30
2022-08-22T08:45:56.443Z,42.80
2022-08-22T08:49:06.495Z,44.30
2022-08-22T08:51:43.741Z,41.30
2022-08-22T08:54:33.230Z,38.70
2022-08-22T08:57:22.982Z,44.30
2022-08-22T09:00:00.962Z,40.50
2022-08-22T09:02:33.104Z,40.10
2022-08-22T09:05:34.109Z,36.00
2022-08-22T09:08:29.482Z,33.20
2022-08-22T09:11:28.249Z,36.40
2022-08-22T09:14:32.917Z,32.90
2022-08-22T09:17:31.664Z,32.00
2022-08-22T09:20:25.416Z,33.70
2022-08-22T09:23:31.852Z,32.50
2022-08-22T09:26:18.912Z,31.50
2022-08-22T09:29:16.312Z,40.30
2022-08-22T09:32:06.667Z,34.90
2022-08-22T09:34:47.727Z,26.10
2022-08-22T09:37:20.069Z,29.60
2022-08-22T09:40:01.520Z,30.90
2022-08-22T09:42:29.845Z,35.10
2022-08-22T09:45:35.067Z,30.50
2022-08-22T09:48:34.545Z,25.70
2022-08-22T09:51:33.311Z,32.60
2022-08-22T09:54:18.876Z,29.70
2022-08-22T09:56:56.394Z,30.50
2022-08-22T09:59:45.734Z,31.60
2022-08-22T10:02:24.739Z,30.00
2022-08-22T10:04:58.364Z,28.90
2022-08-22T10:07:40.937Z,29.90
2022-08-22T10:10:23.477Z,27.80
2022-08-22T10:13:16.615Z,31.20
2022-08-22T10:16:09.447Z,28.30
2022-08-22T10:19:00.525Z,31.40
2022-08-22T10:21:55.683Z,28.00
2022-08-22T10:25:09.338Z,29.60
2022-08-22T10:28:06.522Z,34.80
2022-08-22T10:30:47.429Z,38.30
2022-08-22T10:33:24.538Z,35.30
2022-08-22T10:36:23.846Z,35.10
2022-08-22T10:38:58.023Z,33.80
2022-08-22T10:41:47.041Z,37.30
2022-08-22T10:44:27.625Z,44.50
2022-08-22T10:47:06.129Z,44.70
2022-08-22T10:50:15.674Z,40.20
2022-08-22T10:53:19.587Z,33.30
2022-08-22T10:56:08.644Z,42.00
2022-08-22T10:58:47.060Z,34.30
2022-08-22T11:01:38.426Z,39.90
2022-08-22T11:04:13.771Z,33.60
2022-08-22T11:06:45.865Z,35.50
2022-08-22T11:09:26.004Z,33.30
2022-08-22T11:12:15.087Z,34.10
2022-08-22T11:15:11.041Z,40.30
2022-08-22T11:18:14.215Z,36.30
2022-08-22T11:20:45.330Z,37.40
2022-08-22T11:23:40.933Z,38.60
2022-08-22T11:26:33.770Z,33.30
2022-08-22T11:29:51.841Z,33.90
2022-08-22T11:32:44.337Z,41.00
2022-08-22T11:35:56.246Z,39.60
2022-08-22T11:38:45.884Z,37.90
2022-08-22T11:41:17.213Z,39.40
2022-08-22T11:44:01.521Z,45.00
2022-08-22T11:46:36.654Z,39.10
2022-08-22T11:49:13.806Z,34.40
2022-08-22T11:52:15.964Z,37.40
2022-08-22T11:55:13.950Z,41.60
2022-08-22T11:57:56.299Z,35.20
2022-08-22T12:00:33.782Z,39.80
2022-08-22T12:03:39.695Z,33.60
2022-08-22T12:06:49.907Z,29.40
2022-08-22T12:09:29.846Z,28.60
2022-08-22T12:12:13.403Z,25.90
2022-08-22T12:14:47.403Z,34.10
2022-08-22T12:17:50.668Z,29.00
2022-08-22T12:20:52.903Z,31.90
2022-08-22T12:23:49.343Z,25.50
2022-08-22T12:26:45.861Z,21.10
2022-08-22T12:29:39.870Z,27.50
2022-08-22T12:32:49.264Z,27.50
2022-08-22T12:35:55.725Z,23.70
2022-08-22T12:38:38.775Z,20.30
2022-08-22T12:41:35.199Z,19.70
2022-08-22T12:44:17.292Z,18.10
2022-08-22T12:47:09.258Z,26.40
2022-08-22T12:49:54.535Z,22.20
2022-08-22T12:52:55.135Z,19.20
2022-08-22T12:55:42.024Z,20.50
2022-08-22T12:58:36.328Z,20.90
2022-08-22T13:01:08.786Z,16.70
2022-08-22T13:03:55.683Z,19.00
2022-08-22T13:06:35.824Z,14.40
2022-08-22T13:09:10.995Z,15.90
2022-08-22T13:11:41.584Z,20.50
2022-08-22T13:14:18.516Z,14.90
2022-08-22T13:16:56.080Z,14.70
2022-08-22T13:19:33.218Z,16.40
2022-08-22T13:22:07.125Z,20.30
2022-08-22T13:24:52.752Z,17.50
2022-08-22T13:27:27.028Z,19.70
2022-08-22T13:30:02.672Z,14.10
2022-08-22T13:32:44.451Z,19.80
2022-08-22T13:35:30.386Z,14.40
2022-08-22T13:38:17.463Z,13.90
2022-08-22T13:40:56.962Z,15.30
2022-08-22T13:43:32.045Z,16.10
2022-08-22T13:46:04.843Z,13.40
2022-08-22T13:48:56.711Z,24.90
2022-08-22T13:51:31.413Z,22.90
2022-08-22T13:54:21.340Z,14.20
2022-08-22T13:56:55.633Z,16.30
2022-08-22T13:59:57.766Z,14.80
2022-08-22T14:02:43.202Z,24.60
2022-08-22T14:05:26.132Z,15.20
2022-08-22T14:08:12.479Z,19.10
2022-08-22T14:11:01.477Z,20.70
2022-08-22T14:13:50.053Z,13.50
2022-08-22T14:16:36.573Z,16.30
2022-08-22T14:19:12.618Z,24.20
2022-08-22T14:21:48.284Z,16.20
2022-08-22T14:24:46.905Z,16.40
2022-08-22T14:27:33.123Z,15.70
2022-08-22T14:30:15.213Z,13.00
2022-08-22T14:32:49.520Z,17.50
2022-08-22T14:35:25.444Z,15.80
2022-08-22T14:38:17.465Z,16.50
2022-08-22T14:40:52.196Z,13.30
2022-08-22T14:43:27.583Z,16.50
2022-08-22T14:46:03.597Z,17.30
2022-08-22T14:49:11.470Z,14.00
2022-08-22T14:51:50.874Z,15.50
2022-08-22T14:54:22.774Z,16.30
2022-08-22T14:56:59.508Z,13.20
2022-08-22T14:59:50.298Z,17.70
2022-08-22T15:02:24.406Z,16.00
2022-08-22T15:04:56.433Z,16.60
2022-08-22T15:07:37.448Z,16.60
2022-08-22T15:10:11.779Z,12.90
2022-08-22T15:12:51.386Z,15.60
2022-08-22T15:15:49.691Z,16.30
2022-08-22T15:18:28.542Z,21.70
2022-08-22T15:21:12.541Z,13.60
2022-08-22T15:23:46.772Z,16.30
2022-08-22T15:26:34.541Z,18.10
2022-08-22T15:29:24.399Z,15.50
2022-08-22T15:32:00.561Z,12.00
2022-08-22T15:34:35.676Z,16.10
2022-08-22T15:37:16.488Z,15.90
2022-08-22T15:40:40.603Z,14.50
2022-08-22T15:43:33.643Z,18.80
2022-08-22T15:46:30.085Z,15.60
2022-08-22T15:49:18.442Z,15.80
2022-08-22T15:52:01.913Z,20.80
2022-08-22T15:54:53.449Z,14.70
2022-08-22T15:57:42.020Z,22.40
2022-08-22T16:00:31.281Z,12.90
2022-08-22T16:03:07.107Z,19.20
2022-08-22T16:05:35.640Z,13.80
2022-08-22T16:08:08.546Z,13.70
2022-08-22T16:10:55.214Z,11.70
2022-08-22T16:13:26.340Z,19.90
2022-08-22T16:15:57.296Z,13.20
2022-08-22T16:18:37.439Z,11.30
2022-08-22T16:21:26.148Z,14.10
2022-08-22T16:23:56.552Z,10.40
2022-08-22T16:26:38.869Z,15.10
2022-08-22T16:29:26.272Z,12.90
2022-08-22T16:32:01.532Z,10.20
2022-08-22T16:34:35.674Z,14.00
2022-08-22T16:37:03.852Z,13.70
2022-08-22T16:39:41.154Z,11.40
2022-08-22T16:42:15.753Z,11.60
2022-08-22T16:45:13.149Z,11.70
2022-08-22T16:47:58.452Z,14.70
2022-08-22T16:50:37.587Z,12.50
2022-08-22T16:53:31.708Z,12.20
2022-08-22T16:56:38.303Z,12.50
2022-08-22T16:59:25.414Z,15.70
2022-08-22T17:02:04.862Z,13.30
2022-08-22T17:05:10.377Z,16.10
2022-08-22T17:07:49.366Z,11.10
2022-08-22T17:10:41.268Z,13.00
2022-08-22T17:13:32.891Z,16.30
2022-08-22T17:16:22.964Z,17.40
2022-08-22T17:18:57.109Z,12.40
2022-08-22T17:21:53.530Z,18.20
2022-08-22T17:24:32.325Z,12.20
2022-08-22T17:27:04.856Z,12.60
2022-08-22T17:30:09.481Z,12.40
2022-08-22T17:33:09.369Z,12.80
2022-08-22T17:36:02.840Z,13.10
2022-08-22T17:38:52.177Z,18.90
2022-08-22T17:42:19.081Z,12.00
2022-08-22T17:45:11.026Z,11.70
2022-08-22T17:48:07.226Z,16.00
2022-08-22T17:50:41.369Z,18.50
2022-08-22T17:53:25.155Z,13.10
2022-08-22T17:56:05.815Z,13.50
2022-08-22T17:58:44.407Z,13.60
2022-08-22T18:01:32.933Z,12.90
2022-08-22T18:04:04.928Z,11.40
2022-08-22T18:06:44.049Z,12.50
2022-08-22T18:09:28.514Z,11.40
2022-08-22T18:12:05.166Z,13.60
2022-08-22T18:15:11.329Z,15.80
2022-08-22T18:18:00.777Z,16.70
2022-08-22T18:20:44.590Z,20.30
2022-08-22T18:23:35.484Z,17.00
2022-08-22T18:26:24.712Z,16.00
2022-08-22T18:29:01.350Z,18.00
2022-08-22T18:31:49.055Z,15.40
2022-08-22T18:34:44.975Z,14.30
2022-08-22T18:37:43.526Z,16.80
2022-08-22T18:40:21.177Z,13.80
2022-08-22T18:42:59.052Z,16.90
2022-08-22T18:45:45.824Z,14.10
2022-08-22T18:48:34.399Z,20.70
2022-08-22T18:51:22.457Z,15.90
2022-08-22T18:54:37.565Z,16.60
2022-08-22T18:57:31.610Z,17.40
2022-08-22T19:00:17.100Z,15.20
2022-08-22T19:03:09.496Z,17.40
2022-08-22T19:05:59.403Z,19.70
2022-08-22T19:08:54.904Z,15.80
2022-08-22T19:11:49.153Z,22.30
2022-08-22T19:14:29.493Z,19.80
2022-08-22T19:17:17.901Z,18.10
2022-08-22T19:20:26.456Z,17.00
2022-08-22T19:23:34.288Z,18.50
2022-08-22T19:26:20.709Z,22.50
2022-08-22T19:28:54.802Z,20.00
2022-08-22T19:31:42.671Z,19.10
2022-08-22T19:34:13.480Z,18.30
2022-08-22T19:36:42.756Z,16.60
2022-08-22T19:39:31.947Z,19.40
2022-08-22T19:42:01.276Z,18.20
2022-08-22T19:44:38.355Z,22.30
2022-08-22T19:47:18.587Z,16.70
2022-08-22T19:50:15.111Z,22.40
2022-08-22T19:53:05.900Z,16.10
2022-08-22T19:55:39.425Z,19.00
2022-08-22T19:58:59.041Z,17.50
2022-08-22T20:01:45.858Z,14.70
2022-08-22T20:04:41.310Z,18.30
2022-08-22T20:07:23.899Z,23.40
2022-08-22T20:10:17.883Z,18.10
2022-08-22T20:13:27.539Z,16.70
2022-08-22T20:16:04.611Z,17.70
2022-08-22T20:19:02.017Z,18.70
2022-08-22T20:21:42.217Z,15.50
2022-08-22T20:27:15.895Z,20.80
2022-08-22T20:29:54.668Z,17.70
2022-08-22T20:32:25.727Z,17.40
2022-08-22T20:34:59.182Z,15.70
2022-08-22T20:38:03.187Z,32.20
2022-08-22T20:40:54.662Z,21.70
2022-08-22T20:43:20.449Z,18.10
2022-08-22T20:46:23.967Z,22.70
2022-08-22T20:48:54.655Z,25.40
2022-08-22T20:51:25.909Z,23.40
2022-08-22T20:53:57.126Z,56.00
2022-08-22T20:56:53.283Z,141.70
2022-08-22T20:59:32.828Z,12.60
2022-08-22T21:02:12.846Z,5.30
2022-08-22T21:04:50.008Z,5.00
2022-08-22T21:07:33.197Z,6.90
2022-08-22T21:10:23.276Z,8.30
2022-08-22T21:13:03.826Z,6.10
2022-08-22T21:15:41.068Z,3.50
2022-08-22T21:18:12.023Z,3.00
2022-08-22T21:20:41.091Z,5.30
2022-08-22T21:23:15.110Z,4.60
2022-08-22T21:25:52.342Z,3.20
2022-08-22T21:28:35.725Z,2.70
2022-08-22T21:31:14.775Z,8.80
2022-08-22T21:33:46.440Z,2.20
2022-08-22T21:36:20.653Z,3.70
2022-08-22T21:38:59.396Z,2.40
2022-08-22T21:41:43.300Z,3.50
2022-08-22T21:44:37.412Z,2.90
2022-08-22T21:47:30.483Z,6.10
2022-08-22T21:50:23.414Z,2.10
2022-08-22T21:52:54.130Z,2.40
2022-08-22T21:55:22.158Z,5.40
2022-08-22T21:58:09.083Z,5.70
2022-08-22T22:00:40.507Z,2.60
2022-08-22T22:03:20.418Z,2.50
2022-08-22T22:05:51.004Z,3.90
2022-08-22T22:08:19.456Z,6.30
2022-08-22T22:10:49.177Z,5.20
2022-08-22T22:13:20.311Z,4.50
2022-08-22T22:15:53.121Z,3.10
2022-08-22T22:18:25.585Z,3.00
2022-08-22T22:20:54.793Z,4.20
2022-08-22T22:23:24.144Z,5.40
2022-08-22T22:25:54.637Z,4.00
2022-08-22T22:28:29.652Z,3.40
2022-08-22T22:30:58.156Z,4.00
2022-08-22T22:33:29.903Z,3.10
2022-08-22T22:36:04.639Z,4.40
2022-08-22T22:38:33.033Z,3.40
2022-08-22T22:41:01.267Z,4.30
2022-08-22T22:43:29.453Z,6.70
2022-08-22T22:46:00.264Z,4.60
2022-08-22T22:48:29.327Z,5.50
2022-08-22T22:50:57.599Z,2.90
2022-08-22T22:53:33.779Z,4.90
2022-08-22T22:56:10.086Z,4.50
2022-08-22T22:58:40.505Z,5.50
2022-08-22T23:01:13.829Z,6.00
2022-08-22T23:03:42.280Z,6.10
2022-08-22T23:06:16.965Z,3.60
2022-08-22T23:08:46.033Z,6.10
2022-08-22T23:11:21.587Z,6.20
2022-08-22T23:13:49.892Z,7.20
2022-08-22T23:16:22.224Z,4.10
2022-08-22T23:18:50.713Z,4.90
2022-08-22T23:21:25.404Z,6.30
2022-08-22T23:24:00.210Z,3.90
2022-08-22T23:26:29.181Z,4.50
2022-08-22T23:28:58.141Z,9.30
2022-08-22T23:31:51.231Z,5.30
2022-08-22T23:34:26.521Z,5.80
2022-08-22T23:36:58.469Z,4.20
2022-08-22T23:39:28.520Z,4.60
2022-08-22T23:41:58.180Z,4.20
2022-08-22T23:44:30.946Z,4.90
2022-08-22T23:47:00.997Z,4.80
2022-08-22T23:49:30.607Z,5.00
2022-08-22T23:51:59.193Z,5.10
2022-08-22T23:54:27.715Z,5.00
2022-08-22T23:56:58.781Z,5.60
2022-08-22T23:59:33.906Z,5.80
